Weather at San Mar Gale Airport [CLOSED]

Public forecast

Using degrees Fahrenheit for public forecast. Weather courtesy of forecast.io.

Closest aviation weather report (METAR) to San Mar Gale Airport

Closest report is Warren County Airport/John Lane Field, 5.6 nm (10.3 km) W.

(retrieved 0 seconds ago)

Closest aviation forecast (TAF) to San Mar Gale Airport

Closest forecast is Wilmington Airpark, 15.9 nm (29.4 km) E.

2024/06/13 06:36 (retrieved 4 hours ago)

TAF KILN 130532Z 1306/1406 19003KT P6SM FEW250 FM131400 22008KT P6SM FEW200 FM140200 23004KT P6SM SCT100